sensor_id;sensor_type;location;lat;lon;timestamp;P1;durP1;ratioP1;P2;durP2;ratioP2
55756;SDS011;41676;44.610;44.078;2022-09-09T00:04:35;25.15;;;13.70;;
55756;SDS011;41676;44.610;44.078;2022-09-09T00:09:45;22.23;;;11.52;;
55756;SDS011;41676;44.610;44.078;2022-09-09T00:15:35;20.05;;;9.60;;
55756;SDS011;41676;44.610;44.078;2022-09-09T00:20:16;30.38;;;9.23;;
55756;SDS011;41676;44.610;44.078;2022-09-09T00:25:28;19.38;;;8.63;;
55756;SDS011;41676;44.610;44.078;2022-09-09T00:30:34;20.98;;;9.18;;
55756;SDS011;41676;44.610;44.078;2022-09-09T00:35:37;13.55;;;9.05;;
55756;SDS011;41676;44.610;44.078;2022-09-09T00:40:45;13.63;;;8.50;;
55756;SDS011;41676;44.610;44.078;2022-09-09T00:46:00;21.92;;;9.88;;
55756;SDS011;41676;44.610;44.078;2022-09-09T00:56:25;25.83;;;11.13;;
55756;SDS011;41676;44.610;44.078;2022-09-09T01:01:30;24.23;;;9.07;;
55756;SDS011;41676;44.610;44.078;2022-09-09T01:06:32;10.13;;;6.50;;
55756;SDS011;41676;44.610;44.078;2022-09-09T01:11:45;17.13;;;5.45;;
55756;SDS011;41676;44.610;44.078;2022-09-09T01:17:03;6.30;;;4.60;;
55756;SDS011;41676;44.610;44.078;2022-09-09T01:27:11;10.77;;;4.40;;
55756;SDS011;41676;44.610;44.078;2022-09-09T01:37:45;9.48;;;4.22;;
55756;SDS011;41676;44.610;44.078;2022-09-09T01:42:46;21.25;;;4.75;;
55756;SDS011;41676;44.610;44.078;2022-09-09T01:47:47;44.67;;;6.28;;
55756;SDS011;41676;44.610;44.078;2022-09-09T01:52:50;43.90;;;6.00;;
55756;SDS011;41676;44.610;44.078;2022-09-09T02:03:20;67.47;;;7.00;;
55756;SDS011;41676;44.610;44.078;2022-09-09T02:13:38;107.00;;;10.23;;
55756;SDS011;41676;44.610;44.078;2022-09-09T02:18:41;20.27;;;6.47;;
55756;SDS011;41676;44.610;44.078;2022-09-09T02:23:46;72.32;;;8.00;;
55756;SDS011;41676;44.610;44.078;2022-09-09T02:28:52;18.05;;;9.43;;
55756;SDS011;41676;44.610;44.078;2022-09-09T02:33:58;55.67;;;7.88;;
55756;SDS011;41676;44.610;44.078;2022-09-09T02:39:02;31.50;;;7.97;;
55756;SDS011;41676;44.610;44.078;2022-09-09T02:44:08;14.27;;;5.37;;
55756;SDS011;41676;44.610;44.078;2022-09-09T02:54:40;81.20;;;10.18;;
55756;SDS011;41676;44.610;44.078;2022-09-09T02:59:42;135.55;;;11.45;;
55756;SDS011;41676;44.610;44.078;2022-09-09T03:04:45;57.13;;;7.78;;
55756;SDS011;41676;44.610;44.078;2022-09-09T03:09:50;19.15;;;5.50;;
55756;SDS011;41676;44.610;44.078;2022-09-09T03:14:52;43.55;;;7.28;;
55756;SDS011;41676;44.610;44.078;2022-09-09T03:19:53;52.13;;;5.93;;
55756;SDS011;41676;44.610;44.078;2022-09-09T03:24:55;69.75;;;7.65;;
55756;SDS011;41676;44.610;44.078;2022-09-09T03:29:56;27.58;;;5.00;;
55756;SDS011;41676;44.610;44.078;2022-09-09T03:34:57;12.77;;;4.07;;
55756;SDS011;41676;44.610;44.078;2022-09-09T03:39:58;75.50;;;7.25;;
55756;SDS011;41676;44.610;44.078;2022-09-09T03:44:59;69.18;;;6.40;;
55756;SDS011;41676;44.610;44.078;2022-09-09T03:50:00;15.85;;;3.70;;
55756;SDS011;41676;44.610;44.078;2022-09-09T03:55:01;8.95;;;3.60;;
55756;SDS011;41676;44.610;44.078;2022-09-09T04:00:03;25.75;;;3.95;;
55756;SDS011;41676;44.610;44.078;2022-09-09T04:05:05;17.83;;;4.00;;
55756;SDS011;41676;44.610;44.078;2022-09-09T04:10:07;14.40;;;3.30;;
55756;SDS011;41676;44.610;44.078;2022-09-09T04:15:08;18.00;;;3.47;;
55756;SDS011;41676;44.610;44.078;2022-09-09T04:20:10;17.30;;;3.63;;
55756;SDS011;41676;44.610;44.078;2022-09-09T04:25:12;13.85;;;3.25;;
55756;SDS011;41676;44.610;44.078;2022-09-09T04:30:13;25.38;;;3.20;;
55756;SDS011;41676;44.610;44.078;2022-09-09T04:35:14;18.45;;;2.65;;
55756;SDS011;41676;44.610;44.078;2022-09-09T04:40:15;12.88;;;2.30;;
55756;SDS011;41676;44.610;44.078;2022-09-09T04:45:16;18.80;;;3.00;;
55756;SDS011;41676;44.610;44.078;2022-09-09T04:50:17;20.75;;;2.60;;
55756;SDS011;41676;44.610;44.078;2022-09-09T04:55:18;9.57;;;2.00;;
55756;SDS011;41676;44.610;44.078;2022-09-09T05:00:19;12.15;;;2.45;;
55756;SDS011;41676;44.610;44.078;2022-09-09T05:05:20;19.70;;;2.70;;
55756;SDS011;41676;44.610;44.078;2022-09-09T05:10:20;9.38;;;2.17;;
55756;SDS011;41676;44.610;44.078;2022-09-09T05:15:21;14.02;;;2.63;;
55756;SDS011;41676;44.610;44.078;2022-09-09T05:20:22;7.60;;;1.80;;
55756;SDS011;41676;44.610;44.078;2022-09-09T05:25:23;30.15;;;3.30;;
55756;SDS011;41676;44.610;44.078;2022-09-09T05:30:26;10.18;;;2.30;;
55756;SDS011;41676;44.610;44.078;2022-09-09T05:35:27;14.00;;;2.60;;
55756;SDS011;41676;44.610;44.078;2022-09-09T05:40:27;11.63;;;2.28;;
55756;SDS011;41676;44.610;44.078;2022-09-09T05:45:28;9.93;;;2.25;;
55756;SDS011;41676;44.610;44.078;2022-09-09T05:50:29;7.57;;;1.77;;
55756;SDS011;41676;44.610;44.078;2022-09-09T05:55:30;7.80;;;2.53;;
55756;SDS011;41676;44.610;44.078;2022-09-09T06:00:31;11.75;;;2.40;;
55756;SDS011;41676;44.610;44.078;2022-09-09T06:05:32;13.00;;;2.55;;
55756;SDS011;41676;44.610;44.078;2022-09-09T06:10:33;9.55;;;2.28;;
55756;SDS011;41676;44.610;44.078;2022-09-09T06:15:34;15.07;;;1.98;;
55756;SDS011;41676;44.610;44.078;2022-09-09T06:20:35;9.52;;;2.42;;
55756;SDS011;41676;44.610;44.078;2022-09-09T06:25:37;10.38;;;2.20;;
55756;SDS011;41676;44.610;44.078;2022-09-09T06:30:39;7.88;;;2.30;;
55756;SDS011;41676;44.610;44.078;2022-09-09T06:35:40;6.95;;;2.13;;
55756;SDS011;41676;44.610;44.078;2022-09-09T06:40:40;7.53;;;2.30;;
55756;SDS011;41676;44.610;44.078;2022-09-09T06:45:41;6.05;;;2.03;;
55756;SDS011;41676;44.610;44.078;2022-09-09T06:50:42;7.70;;;2.53;;
55756;SDS011;41676;44.610;44.078;2022-09-09T06:55:43;12.45;;;2.35;;
55756;SDS011;41676;44.610;44.078;2022-09-09T07:00:45;12.00;;;2.53;;
55756;SDS011;41676;44.610;44.078;2022-09-09T07:05:53;12.63;;;2.33;;
55756;SDS011;41676;44.610;44.078;2022-09-09T07:11:01;12.32;;;2.55;;
55756;SDS011;41676;44.610;44.078;2022-09-09T07:16:05;19.20;;;3.00;;
55756;SDS011;41676;44.610;44.078;2022-09-09T07:21:07;9.43;;;2.17;;
55756;SDS011;41676;44.610;44.078;2022-09-09T07:26:11;18.05;;;2.58;;
55756;SDS011;41676;44.610;44.078;2022-09-09T07:31:20;13.77;;;2.30;;
55756;SDS011;41676;44.610;44.078;2022-09-09T07:36:32;25.53;;;3.17;;
55756;SDS011;41676;44.610;44.078;2022-09-09T07:41:44;11.50;;;2.15;;
55756;SDS011;41676;44.610;44.078;2022-09-09T07:46:47;11.38;;;1.88;;
55756;SDS011;41676;44.610;44.078;2022-09-09T07:51:48;3.67;;;1.80;;
55756;SDS011;41676;44.610;44.078;2022-09-09T07:56:50;7.50;;;2.10;;
55756;SDS011;41676;44.610;44.078;2022-09-09T08:01:52;7.20;;;2.05;;
55756;SDS011;41676;44.610;44.078;2022-09-09T08:06:55;18.07;;;2.33;;
55756;SDS011;41676;44.610;44.078;2022-09-09T08:11:58;18.65;;;2.35;;
55756;SDS011;41676;44.610;44.078;2022-09-09T08:17:01;17.60;;;2.03;;
55756;SDS011;41676;44.610;44.078;2022-09-09T08:22:02;9.40;;;2.10;;
55756;SDS011;41676;44.610;44.078;2022-09-09T08:27:03;10.70;;;2.10;;
55756;SDS011;41676;44.610;44.078;2022-09-09T08:32:04;5.97;;;1.80;;
55756;SDS011;41676;44.610;44.078;2022-09-09T08:37:05;23.42;;;2.90;;
55756;SDS011;41676;44.610;44.078;2022-09-09T08:42:28;12.55;;;1.88;;
55756;SDS011;41676;44.610;44.078;2022-09-09T08:58:25;5.20;;;1.83;;
55756;SDS011;41676;44.610;44.078;2022-09-09T09:03:43;10.60;;;2.10;;
55756;SDS011;41676;44.610;44.078;2022-09-09T09:14:03;7.78;;;1.70;;
55756;SDS011;41676;44.610;44.078;2022-09-09T09:19:13;8.80;;;2.28;;
55756;SDS011;41676;44.610;44.078;2022-09-09T09:29:32;8.40;;;2.50;;
55756;SDS011;41676;44.610;44.078;2022-09-09T09:34:35;9.75;;;2.03;;
55756;SDS011;41676;44.610;44.078;2022-09-09T09:39:36;6.53;;;2.00;;
55756;SDS011;41676;44.610;44.078;2022-09-09T09:44:38;14.43;;;2.43;;
55756;SDS011;41676;44.610;44.078;2022-09-09T09:49:39;8.57;;;1.95;;
55756;SDS011;41676;44.610;44.078;2022-09-09T09:54:51;21.38;;;3.38;;
55756;SDS011;41676;44.610;44.078;2022-09-09T10:05:19;8.15;;;2.22;;
55756;SDS011;41676;44.610;44.078;2022-09-09T10:10:25;14.20;;;2.28;;
55756;SDS011;41676;44.610;44.078;2022-09-09T10:16:12;11.90;;;2.27;;
55756;SDS011;41676;44.610;44.078;2022-09-09T10:21:19;10.55;;;2.35;;
55756;SDS011;41676;44.610;44.078;2022-09-09T10:26:40;11.30;;;2.50;;
55756;SDS011;41676;44.610;44.078;2022-09-09T10:31:49;7.88;;;2.38;;
55756;SDS011;41676;44.610;44.078;2022-09-09T10:36:56;15.95;;;2.35;;
55756;SDS011;41676;44.610;44.078;2022-09-09T10:42:02;12.20;;;2.17;;
55756;SDS011;41676;44.610;44.078;2022-09-09T10:57:46;9.13;;;2.60;;
55756;SDS011;41676;44.610;44.078;2022-09-09T11:02:58;6.55;;;1.70;;
55756;SDS011;41676;44.610;44.078;2022-09-09T11:08:16;4.70;;;1.60;;
55756;SDS011;41676;44.610;44.078;2022-09-09T11:13:19;11.60;;;2.00;;
55756;SDS011;41676;44.610;44.078;2022-09-09T11:18:35;7.80;;;1.90;;
55756;SDS011;41676;44.610;44.078;2022-09-09T11:23:42;7.55;;;1.58;;
55756;SDS011;41676;44.610;44.078;2022-09-09T11:28:55;5.82;;;1.48;;
55756;SDS011;41676;44.610;44.078;2022-09-09T11:45:08;11.25;;;1.75;;
55756;SDS011;41676;44.610;44.078;2022-09-09T11:55:31;15.98;;;1.73;;
55756;SDS011;41676;44.610;44.078;2022-09-09T12:00:35;14.73;;;1.80;;
55756;SDS011;41676;44.610;44.078;2022-09-09T12:05:44;7.57;;;1.65;;
55756;SDS011;41676;44.610;44.078;2022-09-09T12:10:56;6.65;;;1.88;;
55756;SDS011;41676;44.610;44.078;2022-09-09T12:16:03;23.67;;;2.65;;
55756;SDS011;41676;44.610;44.078;2022-09-09T12:26:38;18.67;;;2.50;;
55756;SDS011;41676;44.610;44.078;2022-09-09T12:32:06;31.73;;;4.45;;
55756;SDS011;41676;44.610;44.078;2022-09-09T12:37:15;16.17;;;2.67;;
55756;SDS011;41676;44.610;44.078;2022-09-09T12:42:25;9.05;;;1.85;;
55756;SDS011;41676;44.610;44.078;2022-09-09T12:52:38;13.30;;;1.73;;
55756;SDS011;41676;44.610;44.078;2022-09-09T12:57:39;7.70;;;1.40;;
55756;SDS011;41676;44.610;44.078;2022-09-09T13:02:50;5.97;;;1.60;;
55756;SDS011;41676;44.610;44.078;2022-09-09T13:08:05;9.63;;;2.20;;
55756;SDS011;41676;44.610;44.078;2022-09-09T13:13:14;4.78;;;1.42;;
55756;SDS011;41676;44.610;44.078;2022-09-09T13:18:22;6.35;;;1.60;;
55756;SDS011;41676;44.610;44.078;2022-09-09T13:23:29;6.63;;;1.60;;
55756;SDS011;41676;44.610;44.078;2022-09-09T13:28:32;12.35;;;2.10;;
55756;SDS011;41676;44.610;44.078;2022-09-09T13:33:35;76.38;;;5.88;;
55756;SDS011;41676;44.610;44.078;2022-09-09T13:43:55;11.05;;;1.52;;
55756;SDS011;41676;44.610;44.078;2022-09-09T13:48:58;7.15;;;1.45;;
55756;SDS011;41676;44.610;44.078;2022-09-09T13:54:00;10.38;;;1.48;;
55756;SDS011;41676;44.610;44.078;2022-09-09T13:59:02;4.50;;;1.30;;
55756;SDS011;41676;44.610;44.078;2022-09-09T14:04:04;9.32;;;1.80;;
55756;SDS011;41676;44.610;44.078;2022-09-09T14:09:12;7.35;;;1.60;;
55756;SDS011;41676;44.610;44.078;2022-09-09T14:14:15;5.88;;;1.33;;
55756;SDS011;41676;44.610;44.078;2022-09-09T14:19:15;13.30;;;1.65;;
55756;SDS011;41676;44.610;44.078;2022-09-09T14:24:16;15.23;;;2.17;;
55756;SDS011;41676;44.610;44.078;2022-09-09T14:29:17;17.77;;;2.60;;
55756;SDS011;41676;44.610;44.078;2022-09-09T14:34:18;12.05;;;2.08;;
55756;SDS011;41676;44.610;44.078;2022-09-09T14:39:19;14.50;;;2.20;;
55756;SDS011;41676;44.610;44.078;2022-09-09T14:44:20;9.15;;;1.75;;
55756;SDS011;41676;44.610;44.078;2022-09-09T14:49:20;25.13;;;3.25;;
55756;SDS011;41676;44.610;44.078;2022-09-09T14:54:21;31.70;;;3.00;;
55756;SDS011;41676;44.610;44.078;2022-09-09T14:59:23;14.02;;;2.40;;
55756;SDS011;41676;44.610;44.078;2022-09-09T15:04:24;25.13;;;3.05;;
55756;SDS011;41676;44.610;44.078;2022-09-09T15:09:25;21.98;;;3.53;;
55756;SDS011;41676;44.610;44.078;2022-09-09T15:14:26;33.75;;;5.00;;
55756;SDS011;41676;44.610;44.078;2022-09-09T15:19:26;41.88;;;5.10;;
55756;SDS011;41676;44.610;44.078;2022-09-09T15:24:27;44.75;;;9.57;;
55756;SDS011;41676;44.610;44.078;2022-09-09T15:29:28;91.45;;;11.27;;
55756;SDS011;41676;44.610;44.078;2022-09-09T15:34:29;30.73;;;5.70;;
55756;SDS011;41676;44.610;44.078;2022-09-09T15:39:30;46.10;;;6.82;;
55756;SDS011;41676;44.610;44.078;2022-09-09T15:44:37;87.68;;;10.73;;
55756;SDS011;41676;44.610;44.078;2022-09-09T15:49:39;157.73;;;16.30;;
55756;SDS011;41676;44.610;44.078;2022-09-09T15:54:40;77.75;;;9.13;;
55756;SDS011;41676;44.610;44.078;2022-09-09T15:59:43;103.25;;;13.00;;
55756;SDS011;41676;44.610;44.078;2022-09-09T16:04:45;121.70;;;28.45;;
55756;SDS011;41676;44.610;44.078;2022-09-09T16:09:46;103.40;;;21.42;;
55756;SDS011;41676;44.610;44.078;2022-09-09T16:14:46;86.93;;;18.13;;
55756;SDS011;41676;44.610;44.078;2022-09-09T16:19:47;109.57;;;15.73;;
55756;SDS011;41676;44.610;44.078;2022-09-09T16:24:48;57.38;;;12.73;;
55756;SDS011;41676;44.610;44.078;2022-09-09T16:29:49;51.92;;;14.25;;
55756;SDS011;41676;44.610;44.078;2022-09-09T16:34:50;61.40;;;13.18;;
55756;SDS011;41676;44.610;44.078;2022-09-09T16:39:50;58.30;;;13.82;;
55756;SDS011;41676;44.610;44.078;2022-09-09T16:44:52;71.78;;;15.65;;
55756;SDS011;41676;44.610;44.078;2022-09-09T16:49:52;93.60;;;31.75;;
55756;SDS011;41676;44.610;44.078;2022-09-09T16:54:53;114.43;;;40.20;;
55756;SDS011;41676;44.610;44.078;2022-09-09T16:59:54;117.05;;;49.40;;
55756;SDS011;41676;44.610;44.078;2022-09-09T17:04:59;124.93;;;45.20;;
55756;SDS011;41676;44.610;44.078;2022-09-09T17:10:00;114.68;;;41.85;;
55756;SDS011;41676;44.610;44.078;2022-09-09T17:15:01;71.28;;;23.65;;
55756;SDS011;41676;44.610;44.078;2022-09-09T17:20:03;63.17;;;23.48;;
55756;SDS011;41676;44.610;44.078;2022-09-09T17:25:06;64.93;;;12.68;;
55756;SDS011;41676;44.610;44.078;2022-09-09T17:30:08;53.75;;;9.77;;
55756;SDS011;41676;44.610;44.078;2022-09-09T17:35:09;36.22;;;10.68;;
55756;SDS011;41676;44.610;44.078;2022-09-09T17:40:10;33.67;;;8.27;;
55756;SDS011;41676;44.610;44.078;2022-09-09T17:45:11;35.72;;;8.98;;
55756;SDS011;41676;44.610;44.078;2022-09-09T17:50:12;34.22;;;9.35;;
55756;SDS011;41676;44.610;44.078;2022-09-09T17:55:13;39.78;;;9.13;;
55756;SDS011;41676;44.610;44.078;2022-09-09T18:00:14;91.07;;;12.57;;
55756;SDS011;41676;44.610;44.078;2022-09-09T18:05:15;23.52;;;7.10;;
55756;SDS011;41676;44.610;44.078;2022-09-09T18:10:16;24.70;;;6.82;;
55756;SDS011;41676;44.610;44.078;2022-09-09T18:15:17;41.10;;;9.15;;
55756;SDS011;41676;44.610;44.078;2022-09-09T18:20:18;35.05;;;10.93;;
55756;SDS011;41676;44.610;44.078;2022-09-09T18:25:18;48.05;;;15.75;;
55756;SDS011;41676;44.610;44.078;2022-09-09T18:30:19;43.97;;;19.58;;
55756;SDS011;41676;44.610;44.078;2022-09-09T18:35:20;38.90;;;8.98;;
55756;SDS011;41676;44.610;44.078;2022-09-09T18:40:21;27.00;;;8.25;;
55756;SDS011;41676;44.610;44.078;2022-09-09T18:45:22;26.58;;;6.70;;
55756;SDS011;41676;44.610;44.078;2022-09-09T18:50:23;35.03;;;7.43;;
55756;SDS011;41676;44.610;44.078;2022-09-09T18:55:24;25.48;;;7.72;;
55756;SDS011;41676;44.610;44.078;2022-09-09T19:00:25;25.02;;;5.32;;
55756;SDS011;41676;44.610;44.078;2022-09-09T19:05:27;20.30;;;6.22;;
55756;SDS011;41676;44.610;44.078;2022-09-09T19:10:28;20.25;;;5.90;;
55756;SDS011;41676;44.610;44.078;2022-09-09T19:15:30;27.85;;;6.20;;
55756;SDS011;41676;44.610;44.078;2022-09-09T19:20:35;26.17;;;6.20;;
55756;SDS011;41676;44.610;44.078;2022-09-09T19:25:37;33.20;;;6.60;;
55756;SDS011;41676;44.610;44.078;2022-09-09T19:30:38;48.92;;;8.60;;
55756;SDS011;41676;44.610;44.078;2022-09-09T19:35:38;27.23;;;7.07;;
55756;SDS011;41676;44.610;44.078;2022-09-09T19:40:40;46.40;;;7.65;;
55756;SDS011;41676;44.610;44.078;2022-09-09T19:45:41;69.75;;;9.55;;
55756;SDS011;41676;44.610;44.078;2022-09-09T19:50:42;64.43;;;9.75;;
55756;SDS011;41676;44.610;44.078;2022-09-09T19:55:43;24.45;;;7.00;;
55756;SDS011;41676;44.610;44.078;2022-09-09T20:00:44;46.33;;;8.63;;
55756;SDS011;41676;44.610;44.078;2022-09-09T20:05:45;27.60;;;7.43;;
55756;SDS011;41676;44.610;44.078;2022-09-09T20:10:51;26.05;;;7.22;;
55756;SDS011;41676;44.610;44.078;2022-09-09T20:16:00;71.40;;;9.43;;
55756;SDS011;41676;44.610;44.078;2022-09-09T20:21:10;25.27;;;6.78;;
55756;SDS011;41676;44.610;44.078;2022-09-09T20:26:23;77.72;;;9.45;;
55756;SDS011;41676;44.610;44.078;2022-09-09T20:31:28;29.02;;;7.30;;
55756;SDS011;41676;44.610;44.078;2022-09-09T20:36:30;26.95;;;7.20;;
55756;SDS011;41676;44.610;44.078;2022-09-09T20:41:33;28.45;;;7.03;;
55756;SDS011;41676;44.610;44.078;2022-09-09T20:46:36;38.08;;;10.95;;
55756;SDS011;41676;44.610;44.078;2022-09-09T20:51:38;36.30;;;13.02;;
55756;SDS011;41676;44.610;44.078;2022-09-09T20:56:40;26.33;;;9.43;;
55756;SDS011;41676;44.610;44.078;2022-09-09T21:01:42;23.20;;;5.22;;
55756;SDS011;41676;44.610;44.078;2022-09-09T21:06:43;23.33;;;5.22;;
55756;SDS011;41676;44.610;44.078;2022-09-09T21:11:45;22.35;;;5.25;;
55756;SDS011;41676;44.610;44.078;2022-09-09T21:16:46;21.38;;;5.32;;
55756;SDS011;41676;44.610;44.078;2022-09-09T21:21:47;21.13;;;5.20;;
55756;SDS011;41676;44.610;44.078;2022-09-09T21:26:48;24.05;;;5.18;;
55756;SDS011;41676;44.610;44.078;2022-09-09T21:31:49;27.70;;;5.70;;
55756;SDS011;41676;44.610;44.078;2022-09-09T21:36:50;22.98;;;5.68;;
55756;SDS011;41676;44.610;44.078;2022-09-09T21:41:50;27.92;;;5.90;;
55756;SDS011;41676;44.610;44.078;2022-09-09T21:46:51;24.67;;;6.45;;
55756;SDS011;41676;44.610;44.078;2022-09-09T21:51:52;21.40;;;6.47;;
55756;SDS011;41676;44.610;44.078;2022-09-09T21:56:54;21.98;;;7.00;;
55756;SDS011;41676;44.610;44.078;2022-09-09T22:01:55;23.80;;;6.10;;
55756;SDS011;41676;44.610;44.078;2022-09-09T22:06:55;21.08;;;5.30;;
55756;SDS011;41676;44.610;44.078;2022-09-09T22:11:56;26.58;;;4.93;;
55756;SDS011;41676;44.610;44.078;2022-09-09T22:16:57;23.55;;;5.25;;
55756;SDS011;41676;44.610;44.078;2022-09-09T22:21:58;14.48;;;4.60;;
55756;SDS011;41676;44.610;44.078;2022-09-09T22:26:59;23.77;;;5.10;;
55756;SDS011;41676;44.610;44.078;2022-09-09T22:32:00;19.45;;;4.88;;
55756;SDS011;41676;44.610;44.078;2022-09-09T22:37:02;55.70;;;7.00;;
55756;SDS011;41676;44.610;44.078;2022-09-09T22:42:05;59.83;;;7.07;;
55756;SDS011;41676;44.610;44.078;2022-09-09T22:47:06;28.30;;;6.63;;
55756;SDS011;41676;44.610;44.078;2022-09-09T22:52:07;49.83;;;7.72;;
55756;SDS011;41676;44.610;44.078;2022-09-09T22:57:09;132.10;;;9.75;;
55756;SDS011;41676;44.610;44.078;2022-09-09T23:02:10;39.38;;;7.32;;
55756;SDS011;41676;44.610;44.078;2022-09-09T23:07:13;17.08;;;6.45;;
55756;SDS011;41676;44.610;44.078;2022-09-09T23:12:19;34.10;;;7.13;;
55756;SDS011;41676;44.610;44.078;2022-09-09T23:17:22;26.15;;;6.35;;
55756;SDS011;41676;44.610;44.078;2022-09-09T23:22:23;13.57;;;5.57;;
55756;SDS011;41676;44.610;44.078;2022-09-09T23:27:24;17.13;;;5.53;;
55756;SDS011;41676;44.610;44.078;2022-09-09T23:32:25;14.52;;;6.35;;
55756;SDS011;41676;44.610;44.078;2022-09-09T23:37:25;28.55;;;8.70;;
55756;SDS011;41676;44.610;44.078;2022-09-09T23:42:26;24.45;;;7.80;;
55756;SDS011;41676;44.610;44.078;2022-09-09T23:47:29;22.77;;;8.38;;
55756;SDS011;41676;44.610;44.078;2022-09-09T23:52:30;30.30;;;6.95;;
55756;SDS011;41676;44.610;44.078;2022-09-09T23:57:31;19.75;;;6.90;;
